Historique des mesures à Cassis (13260), France
Quotidien Résumé Avril 30, 2017 Unités:  Métrique    US   Métrique/US
« Précédent (Jour)
Suivant (Jour) »
Quotidien Hebdomadaire Mensuel Annuel Période au choix
  Maximum: Minimum: Moyenne:
Température: TemperatureC °C 11.8 °C 13.8 °C
Point de rosée: DewpointC °C 6.3 °C 8.3 °C
Humidité: Humidity % 63 % 66 %
Vitesse du vent: 0 km/h 0 km/h 4.3 km/h
Rafales: 0 km/h - -
Vent:- - SSE
Pression: PressurehPa hPa 1008.4 hPa -
Précipitations: 0.0 mm    
Historical Graphs
 
 
Mesures pour : Avril 30, 2017
Heure Temperature Point de rosée Pression Vent Vitesse du vent Rafales Humidité Pluie (par heure) Conditions
TemperatureC °C DewpointC °C PressurehPa hPa Calm     Humidity % HourlyPrecipMM mm SoftwareType W/m2
00:10 12.5 °C 6.5 °C 1012.4 hPa ENE 8 km/h 8 km/h 67 % 0.0 mm open2300-1.11 W/m2
01:10 12.0 °C 6.3 °C 1012.4 hPa Calm   2.3 km/h 68 % 0.0 mm open2300-1.11 W/m2
02:10 11.8 °C 6.3 °C 1012.4 hPa Calm     69 % 0.0 mm open2300-1.11 W/m2
03:10 12.1 °C 6.8 °C 1012.1 hPa Calm     70 % 0.0 mm open2300-1.11 W/m2
04:10 12.7 °C 7.4 °C 1012.1 hPa Calm     70 % 0.0 mm open2300-1.11 W/m2
05:10 12.2 °C 7.1 °C 1011.7 hPa Calm     71 % 0.0 mm open2300-1.11 W/m2
06:10 11.9 °C 7.0 °C 1011.7 hPa Calm   3.4 km/h 72 % 0.0 mm open2300-1.11 W/m2
07:11 12.4 °C 7.7 °C 1011.7 hPa Calm   6.9 km/h 73 % 0.0 mm open2300-1.11 W/m2
08:10 13.3 °C 8.2 °C 1012.1 hPa Calm   2.9 km/h 71 % 0.0 mm open2300-1.11 W/m2
09:10 13.8 °C 8.6 °C 1011.7 hPa SW 4.2 km/h 5.6 km/h 71 % 0.0 mm open2300-1.11 W/m2
10:11 14.4 °C 9.2 °C 1011.7 hPa South 13.2 km/h 13.2 km/h 71 % 0.0 mm open2300-1.11 W/m2
11:11 15.6 °C 10.0 °C 1011.4 hPa WSW 5.1 km/h 5.1 km/h 69 % 0.0 mm open2300-1.11 W/m2
12:10 16.1 °C 9.6 °C 1011.7 hPa SE 7.6 km/h 7.6 km/h 65 % 0.0 mm open2300-1.11 W/m2
13:11 16.2 °C 9.4 °C 1011.4 hPa SE 7.6 km/h 18.7 km/h 64 % 0.0 mm open2300-1.11 W/m2
14:10 16.5 °C 9.7 °C 1010.7 hPa SSW 2.9 km/h 9.3 km/h 64 % 0.0 mm open2300-1.11 W/m2
15:10 17.5 °C 10.3 °C 1010.0 hPa SSE 9.8 km/h 9.8 km/h 63 % 0.0 mm open2300-1.11 W/m2
16:10 16.6 °C 9.8 °C 1010.0 hPa SSE 7.6 km/h 25.4 km/h 64 % 0.0 mm open2300-1.11 W/m2
17:10 16.4 °C 10.3 °C 1009.7 hPa NE 3.4 km/h 15.6 km/h 67 % 0.0 mm open2300-1.11 W/m2
18:10 16.2 °C 10.3 °C 1009.4 hPa WSW 7.6 km/h 7.6 km/h 68 % 0.0 mm open2300-1.11 W/m2
19:10 16.0 °C 9.4 °C 1009.0 hPa SE 11.6 km/h 15 km/h 65 % 0.0 mm open2300-1.11 W/m2
20:10 15.3 °C 9.0 °C 1008.7 hPa South 8 km/h 8 km/h 66 % 0.0 mm open2300-1.11 W/m2
21:10 14.9 °C 9.3 °C 1009.0 hPa South 3.4 km/h 6.4 km/h 69 % 0.0 mm open2300-1.11 W/m2
22:10 14.8 °C 9.8 °C 1009.7 hPa South 5.6 km/h 16.3 km/h 72 % 0.0 mm open2300-1.11 W/m2
23:10 14.3 °C 10.3 °C 1008.4 hPa ESE 3.4 km/h 9.8 km/h 77 % 0.0 mm open2300-1.11 W/m2
Observations météo à CASSIS
WU-History script by Weather Underground - 1 mb